Time;durP1;ratioP1;P1;durP2;ratioP2;P2;SDS_P1;SDS_P2;PMS_P1;PMS_P2;Temp;Humidity;BMP_temperature;BMP_pressure;BME280_temperature;BME280_humidity;BME280_pressure;Samples;Min_cycle;Max_cycle;Signal;HPM_P1;HPM_P2
2023/07/27 00:00:33;;;;;;;;;2.75;2.75;;;;;22.08;44.88;100599.81;5042544;28;46105;-61
2023/07/27 00:02:58;;;;;;;;;2.00;2.00;;;;;22.07;45.52;100596.31;5042782;28;45451;-61
2023/07/27 00:05:24;;;;;;;;;2.50;1.75;;;;;22.06;45.27;100594.56;5042487;28;45313;-61
2023/07/27 00:07:49;;;;;;;;;2.25;2.25;;;;;22.06;45.21;100594.56;5042608;28;45372;-61
2023/07/27 00:10:14;;;;;;;;;3.00;2.00;;;;;22.06;45.39;100594.56;5042406;28;45334;-61
2023/07/27 00:12:40;;;;;;;;;2.00;2.00;;;;;22.04;45.66;100588.47;5042462;28;45310;-61
2023/07/27 00:15:06;;;;;;;;;2.00;2.00;;;;;22.07;45.42;100592.75;5042436;28;45319;-61
2023/07/27 00:17:31;;;;;;;;;3.00;2.00;;;;;22.06;46.17;100591.03;5042361;28;45327;-61
2023/07/27 00:19:57;;;;;;;;;4.00;1.00;;;;;22.07;46.34;100587.41;5041956;28;45285;-61
2023/07/27 00:22:23;;;;;;;;;1.00;1.00;;;;;22.05;45.67;100590.19;5040901;28;45423;-61
2023/07/27 00:24:48;;;;;;;;;4.00;2.00;;;;;22.04;46.35;100591.13;5042275;28;45297;-61
2023/07/27 00:27:13;;;;;;;;;1.00;1.00;;;;;22.05;46.58;100595.53;5042361;28;45246;-61
2023/07/27 00:29:38;;;;;;;;;1.75;1.00;;;;;22.04;45.98;100588.47;5027160;28;59162;-61
2023/07/27 00:32:04;;;;;;;;;2.25;2.25;;;;;22.05;46.71;100583.97;5028902;28;46202;-61
2023/07/27 00:34:30;;;;;;;;;2.50;2.00;;;;;22.03;46.57;100580.53;5022129;28;45269;-61
2023/07/27 00:36:55;;;;;;;;;1.50;1.50;;;;;22.03;46.19;100576.03;5022297;28;45212;-61
2023/07/27 00:39:21;;;;;;;;;2.75;2.75;;;;;21.98;46.55;100553.22;5022122;28;46036;-61
2023/07/27 00:41:46;;;;;;;;;2.25;2.25;;;;;22.03;47.00;100559.97;5022194;28;45356;-61
2023/07/27 00:44:11;;;;;;;;;1.00;1.00;;;;;22.01;47.05;100551.22;5022153;28;45416;-61
2023/07/27 00:46:37;;;;;;;;;0.00;0.00;;;;;22.01;47.01;100555.69;5022359;28;45364;-61
2023/07/27 00:49:04;;;;;;;;;1.75;1.75;;;;;22.02;47.01;100555.59;5021604;28;46261;-61
2023/07/27 00:51:34;;;;;;;;;5.00;2.00;;;;;22.03;47.13;100551.13;5022063;28;45315;-61
2023/07/27 00:54:00;;;;;;;;;3.50;2.00;;;;;21.99;47.20;100539.75;5021842;28;45298;-61
2023/07/27 00:56:26;;;;;;;;;1.00;1.00;;;;;22.00;47.29;100552.16;5021700;28;45512;-61
2023/07/27 00:58:52;;;;;;;;;1.00;1.00;;;;;21.99;47.53;100553.13;5026772;28;45431;-61
2023/07/27 01:01:17;;;;;;;;;2.50;2.50;;;;;21.94;47.68;100547.22;5041852;28;45455;-61
2023/07/27 01:03:43;;;;;;;;;2.00;2.00;;;;;21.98;47.63;100554.06;5041464;28;45336;-61
2023/07/27 01:06:08;;;;;;;;;1.50;1.50;;;;;21.96;47.53;100545.31;5041778;28;45469;-61
2023/07/27 01:08:34;;;;;;;;;2.00;2.00;;;;;21.95;47.59;100540.91;5041529;28;45456;-61
2023/07/27 01:11:02;;;;;;;;;0.00;0.00;;;;;21.95;47.90;100546.25;5041620;28;45376;-61
2023/07/27 01:13:45;;;;;;;;;1.50;1.50;;;;;21.94;47.43;100541.88;5041558;28;45273;-61
2023/07/27 01:16:13;;;;;;;;;1.00;1.00;;;;;21.95;47.89;100543.59;5041405;28;45420;-61
2023/07/27 01:19:25;;;;;;;;;2.00;1.00;;;;;21.94;47.87;100549.00;5041208;28;45349;-61
2023/07/27 01:22:16;;;;;;;;;2.00;1.00;;;;;21.93;48.10;100540.16;5014257;28;47893;-61
2023/07/27 01:24:48;;;;;;;;;2.00;1.00;;;;;21.92;47.49;100539.31;5022479;28;45438;-61
2023/07/27 01:27:45;;;;;;;;;3.00;2.00;;;;;21.92;47.73;100530.41;5003730;28;45286;-61
2023/07/27 01:30:29;;;;;;;;;2.00;2.00;;;;;21.90;48.12;100522.47;5031877;28;46260;-61
2023/07/27 01:33:00;;;;;;;;;1.25;1.25;;;;;21.90;47.84;100527.00;5041020;28;45222;-61
2023/07/27 01:35:31;;;;;;;;;0.75;0.75;;;;;21.90;48.23;100527.00;5041025;28;45281;-61
2023/07/27 01:38:00;;;;;;;;;1.25;1.25;;;;;21.90;48.48;100527.00;5041191;28;45345;-61
2023/07/27 01:40:28;;;;;;;;;2.25;1.00;;;;;21.86;48.45;100520.09;5040885;28;45354;-61
2023/07/27 01:42:53;;;;;;;;;2.00;2.00;;;;;21.85;48.46;100516.56;5028691;28;45259;-61
2023/07/27 01:45:21;;;;;;;;;3.00;1.00;;;;;21.84;48.97;100517.53;5025940;28;45340;-61
2023/07/27 01:47:48;;;;;;;;;1.75;1.75;;;;;21.82;49.20;100514.09;5021329;28;45286;-61
2023/07/27 01:50:15;;;;;;;;;1.50;1.00;;;;;21.81;48.79;100509.72;5020589;28;45732;-61
2023/07/27 01:52:42;;;;;;;;;1.00;1.00;;;;;21.79;49.14;100516.13;5003332;28;45365;-61
2023/07/27 01:55:09;;;;;;;;;3.00;2.00;;;;;21.77;49.16;100504.66;5020780;28;45539;-62
2023/07/27 01:57:35;;;;;;;;;1.50;1.25;;;;;21.73;49.11;100510.19;5020819;28;45546;-61
2023/07/27 02:00:02;;;;;;;;;3.00;0.75;;;;;21.73;49.26;100504.84;5036291;28;45226;-61
2023/07/27 02:02:28;;;;;;;;;1.00;1.00;;;;;21.72;49.29;100499.59;5039342;28;45345;-61
2023/07/27 02:04:57;;;;;;;;;1.00;1.00;;;;;21.69;49.48;100491.78;5040524;28;45479;-61
2023/07/27 02:07:22;;;;;;;;;1.00;1.00;;;;;21.69;48.85;100489.97;5040808;28;45531;-61
2023/07/27 02:09:48;;;;;;;;;2.25;1.25;;;;;21.71;49.17;100496.09;5038490;28;55443;-61
2023/07/27 02:12:25;;;;;;;;;3.00;1.00;;;;;21.69;49.04;100489.97;5040304;28;50775;-62
2023/07/27 02:15:04;;;;;;;;;2.00;2.00;;;;;21.68;49.46;100496.25;5040608;28;45247;-61
2023/07/27 02:17:46;;;;;;;;;0.75;0.75;;;;;21.67;49.73;100497.25;5040339;28;45401;-61
2023/07/27 02:20:14;;;;;;;;;1.75;1.00;;;;;21.65;49.38;100501.81;5040283;28;46310;-61
2023/07/27 02:22:44;;;;;;;;;2.25;1.25;;;;;21.60;49.70;100498.59;5039021;28;45616;-61
2023/07/27 02:25:11;;;;;;;;;0.50;0.50;;;;;21.59;50.09;100491.53;5040408;28;45209;-61
2023/07/27 02:27:36;;;;;;;;;1.00;1.00;;;;;21.59;49.69;100489.69;5040331;28;45379;-61
2023/07/27 02:30:02;;;;;;;;;2.00;2.00;;;;;21.57;50.11;100488.97;5040233;28;45375;-61
2023/07/27 02:32:27;;;;;;;;;1.00;1.00;;;;;21.57;49.73;100493.44;5039516;28;45452;-61
2023/07/27 02:34:53;;;;;;;;;1.25;1.25;;;;;21.55;50.12;100498.00;5038930;28;45273;-62
2023/07/27 02:37:18;;;;;;;;;1.75;1.75;;;;;21.51;49.88;100481.31;5040086;28;47984;-61
2023/07/27 02:39:43;;;;;;;;;2.50;1.00;;;;;21.51;50.35;100485.78;5039168;28;47357;-61
2023/07/27 02:42:08;;;;;;;;;1.75;1.75;;;;;21.48;49.99;100478.81;5040072;28;45491;-61
2023/07/27 02:44:34;;;;;;;;;1.00;1.00;;;;;21.49;50.08;100471.66;5040381;28;45345;-61
2023/07/27 02:46:59;;;;;;;;;0.00;0.00;;;;;21.48;50.58;100475.28;5040122;28;45296;-61
2023/07/27 02:49:24;;;;;;;;;1.00;1.00;;;;;21.46;50.46;100474.50;5039838;28;48025;-61
2023/07/27 02:51:50;;;;;;;;;0.75;0.75;;;;;21.43;50.18;100473.78;5039801;28;53335;-61
2023/07/27 02:54:15;;;;;;;;;1.00;1.00;;;;;21.42;50.12;100477.41;5040236;28;45441;-61
2023/07/27 02:56:40;;;;;;;;;0.50;0.50;;;;;21.39;50.61;100477.59;5039481;28;56010;-61
2023/07/27 02:59:05;;;;;;;;;1.00;1.00;;;;;21.39;50.69;100480.25;5039830;28;46246;-61
2023/07/27 03:01:31;;;;;;;;;2.00;2.00;;;;;21.37;50.02;100474.16;5040078;28;45296;-61
2023/07/27 03:03:56;;;;;;;;;1.00;1.00;;;;;21.36;50.47;100472.44;5039856;28;45167;-61
2023/07/27 03:06:21;;;;;;;;;0.00;0.00;;;;;21.35;50.16;100472.56;5039884;28;45467;-61
2023/07/27 03:08:47;;;;;;;;;2.25;1.00;;;;;21.35;50.18;100475.22;5039813;28;45234;-61
2023/07/27 03:11:12;;;;;;;;;1.00;1.00;;;;;21.30;49.97;100470.16;5039673;28;45232;-61
2023/07/27 03:13:37;;;;;;;;;1.00;0.75;;;;;21.25;49.80;100462.44;5039896;28;45384;-61
2023/07/27 03:16:03;;;;;;;;;0.00;0.00;;;;;21.31;50.58;100471.88;5039545;28;48353;-61
2023/07/27 03:18:29;;;;;;;;;0.50;0.50;;;;;21.26;50.35;100471.31;5039358;28;46161;-61
2023/07/27 03:20:55;;;;;;;;;1.25;1.25;;;;;21.29;50.71;100483.63;5039803;28;45272;-61
2023/07/27 03:23:20;;;;;;;;;0.25;0.00;;;;;21.26;50.37;100484.69;5043347;28;45534;-61
2023/07/27 03:25:45;;;;;;;;;0.00;0.00;;;;;21.25;50.16;100496.31;5043166;28;45213;-61
2023/07/27 03:28:10;;;;;;;;;2.00;1.00;;;;;21.25;49.96;100488.31;5043037;28;46252;-61
2023/07/27 03:30:38;;;;;;;;;0.75;0.75;;;;;21.24;50.42;100486.56;5043100;28;45380;-61
2023/07/27 03:33:05;;;;;;;;;0.00;0.00;;;;;21.23;50.29;100487.53;5041987;28;45454;-61
2023/07/27 03:35:31;;;;;;;;;0.50;0.50;;;;;21.20;50.33;100480.56;5042730;28;45324;-61
2023/07/27 03:37:56;;;;;;;;;0.00;0.00;;;;;21.19;50.44;100481.50;5043023;28;46108;-61
2023/07/27 03:40:22;;;;;;;;;2.25;1.25;;;;;21.18;50.58;100470.94;5042920;28;45219;-61
2023/07/27 03:42:47;;;;;;;;;1.00;1.00;;;;;21.15;50.34;100488.00;5043313;28;45336;-61
2023/07/27 03:45:14;;;;;;;;;1.00;1.00;;;;;21.15;50.55;100490.69;5041663;28;45233;-61
2023/07/27 03:47:40;;;;;;;;;0.00;0.00;;;;;21.13;50.66;100492.63;5041789;28;46155;-61
2023/07/27 03:50:06;;;;;;;;;0.00;0.00;;;;;21.12;51.22;100488.22;5042610;28;45222;-61
2023/07/27 03:52:31;;;;;;;;;1.00;1.00;;;;;21.09;51.25;100486.59;5043151;28;45459;-61
2023/07/27 03:54:56;;;;;;;;;0.25;0.25;;;;;21.06;51.05;100489.44;5042385;28;45554;-61
2023/07/27 03:57:22;;;;;;;;;0.00;0.00;;;;;21.02;51.39;100490.59;5024867;28;45987;-61
2023/07/27 03:59:47;;;;;;;;;1.00;1.00;;;;;21.02;51.74;100497.75;5042476;28;49907;-61
2023/07/27 04:02:12;;;;;;;;;0.00;0.00;;;;;20.99;51.14;100506.81;5042534;28;49941;-61
2023/07/27 04:04:38;;;;;;;;;0.00;0.00;;;;;20.96;51.25;100493.66;5042395;28;51850;-61
2023/07/27 04:07:03;;;;;;;;;0.00;0.00;;;;;20.96;51.67;100498.16;5042481;28;45257;-61
2023/07/27 04:09:28;;;;;;;;;2.00;1.00;;;;;20.94;51.68;100492.88;5042715;28;45309;-61
2023/07/27 04:11:54;;;;;;;;;0.00;0.00;;;;;20.90;52.08;100484.19;5042365;28;49187;-61
2023/07/27 04:14:19;;;;;;;;;1.75;1.00;;;;;20.90;51.68;100478.00;5042534;28;45455;-61
2023/07/27 04:16:44;;;;;;;;;0.00;0.00;;;;;20.86;51.52;100479.16;5042463;28;46075;-61
2023/07/27 04:19:10;;;;;;;;;0.00;0.00;;;;;20.87;51.64;100495.06;5040979;28;45317;-61
2023/07/27 04:21:35;;;;;;;;;0.75;0.75;;;;;20.86;51.71;100492.50;5042151;28;48366;-61
2023/07/27 04:24:01;;;;;;;;;0.00;0.00;;;;;20.85;51.89;100499.63;5042324;28;45335;-61
2023/07/27 04:26:27;;;;;;;;;1.00;1.00;;;;;20.84;51.59;100500.63;5042159;28;45988;-61
2023/07/27 04:28:52;;;;;;;;;0.50;0.50;;;;;20.83;51.69;100504.22;5042252;28;45244;-61
2023/07/27 04:31:17;;;;;;;;;0.00;0.00;;;;;20.83;52.47;100488.22;5042442;28;45159;-61
2023/07/27 04:33:43;;;;;;;;;0.00;0.00;;;;;20.82;51.86;100488.28;5041636;28;51981;-61
2023/07/27 04:36:08;;;;;;;;;3.25;1.00;;;;;20.81;51.77;100490.09;5042084;28;46191;-61
2023/07/27 04:38:33;;;;;;;;;0.00;0.00;;;;;20.81;52.03;100487.44;5042208;28;45221;-61
2023/07/27 04:40:58;;;;;;;;;0.00;0.00;;;;;20.80;52.52;100482.19;5042072;28;45459;-61
2023/07/27 04:43:24;;;;;;;;;0.75;0.00;;;;;20.81;52.16;100478.59;5042184;28;45250;-61
2023/07/27 04:45:49;;;;;;;;;2.50;1.00;;;;;20.81;51.84;100481.25;5042107;28;46061;-61
2023/07/27 04:48:14;;;;;;;;;0.00;0.00;;;;;20.78;52.08;100488.47;5041773;28;46859;-61
2023/07/27 04:50:40;;;;;;;;;0.25;0.25;;;;;20.74;51.96;100473.63;5042102;28;45253;-61
2023/07/27 04:53:05;;;;;;;;;0.00;0.00;;;;;20.81;51.88;100486.59;5042003;28;45441;-61
2023/07/27 04:55:30;;;;;;;;;1.00;1.00;;;;;20.80;51.99;100482.19;5041436;28;50471;-61
2023/07/27 04:57:56;;;;;;;;;0.00;0.00;;;;;20.82;52.34;100502.50;5041794;28;45178;-61
2023/07/27 05:00:21;;;;;;;;;3.75;0.25;;;;;20.81;51.89;100499.94;5041752;28;45357;-61
2023/07/27 05:02:46;;;;;;;;;1.00;1.00;;;;;20.81;52.67;100494.59;5041862;28;45438;-61
2023/07/27 05:05:12;;;;;;;;;0.00;0.00;;;;;20.82;52.06;100494.50;5041331;28;47022;-61
2023/07/27 05:07:37;;;;;;;;;1.00;0.50;;;;;20.82;52.47;100502.50;5041713;28;45320;-61
2023/07/27 05:10:03;;;;;;;;;1.00;0.75;;;;;20.81;52.18;100486.59;5041641;28;45471;-61
2023/07/27 05:12:28;;;;;;;;;0.00;0.00;;;;;20.83;52.61;100487.34;5031715;28;45334;-61
2023/07/27 05:14:54;;;;;;;;;2.75;1.75;;;;;20.83;51.94;100487.34;5041199;28;47062;-61
2023/07/27 05:17:19;;;;;;;;;0.25;0.00;;;;;20.84;52.30;100483.72;5041693;28;45356;-61
2023/07/27 05:19:45;;;;;;;;;4.00;2.00;;;;;20.83;52.55;100477.53;5041399;28;45336;-61
2023/07/27 05:22:10;;;;;;;;;0.75;0.75;;;;;20.82;52.29;100469.59;5041444;28;45396;-62
2023/07/27 05:24:35;;;;;;;;;0.75;0.75;;;;;20.83;52.73;100473.97;5041125;28;48488;-61
2023/07/27 05:27:01;;;;;;;;;2.00;1.00;;;;;20.85;53.00;100469.41;5040953;28;53118;-61
2023/07/27 05:29:26;;;;;;;;;3.75;2.00;;;;;20.82;52.44;100465.13;5041281;28;45321;-61
2023/07/27 05:31:51;;;;;;;;;9.50;9.50;;;;;20.84;52.39;100475.72;5041320;28;45225;-61
2023/07/27 05:34:17;;;;;;;;;0.75;0.25;;;;;20.82;52.88;100480.28;5040724;28;45305;-62
2023/07/27 05:36:42;;;;;;;;;1.00;1.00;;;;;20.82;52.41;100477.59;5041240;28;45272;-61
2023/07/27 05:39:08;;;;;;;;;1.00;1.00;;;;;20.84;52.58;100473.91;5041136;28;45475;-61
2023/07/27 05:41:33;;;;;;;;;0.00;0.00;;;;;20.83;53.00;100488.22;5041011;28;45375;-63
2023/07/27 05:43:58;;;;;;;;;1.25;0.50;;;;;20.82;52.94;100480.28;5022278;28;48100;-62
2023/07/27 05:46:24;;;;;;;;;2.25;1.75;;;;;20.82;52.99;100475.81;5041039;28;45471;-61
2023/07/27 05:48:49;;;;;;;;;1.00;1.00;;;;;20.84;53.15;100473.91;5032905;28;45429;-61
2023/07/27 05:51:14;;;;;;;;;1.00;1.00;;;;;20.85;52.91;100469.41;5020950;28;50477;-61
2023/07/27 05:53:39;;;;;;;;;1.00;1.00;;;;;20.85;52.87;100474.75;5021065;28;45301;-61
2023/07/27 05:56:05;;;;;;;;;1.00;1.00;;;;;20.84;52.88;100473.03;5020941;28;45277;-61
2023/07/27 05:58:30;;;;;;;;;0.00;0.00;;;;;20.83;53.04;100484.66;5024138;28;45237;-61
2023/07/27 06:01:03;;;;;;;;;2.00;1.00;;;;;20.84;53.42;100473.91;5039593;28;45255;-61
2023/07/27 06:03:29;;;;;;;;;1.75;1.00;;;;;20.85;53.43;100474.75;5040312;28;46448;-61
2023/07/27 06:05:55;;;;;;;;;2.00;2.00;;;;;20.85;53.42;100485.44;5040748;28;45463;-61
2023/07/27 06:08:20;;;;;;;;;0.25;0.25;;;;;20.87;53.17;100467.53;5040700;28;45151;-61
2023/07/27 06:10:45;;;;;;;;;0.00;0.00;;;;;20.88;53.14;100479.91;5040431;28;50286;-61
2023/07/27 06:13:11;;;;;;;;;1.00;1.00;;;;;20.85;54.01;100470.25;5040396;28;46447;-61
2023/07/27 06:15:36;;;;;;;;;1.25;1.00;;;;;20.84;53.69;100467.69;5040763;28;45217;-61
2023/07/27 06:18:02;;;;;;;;;0.25;0.25;;;;;20.80;53.64;100461.69;5040575;28;45494;-62
2023/07/27 06:20:27;;;;;;;;;1.00;1.00;;;;;20.83;53.27;100469.53;5040356;28;45431;-61
2023/07/27 06:22:53;;;;;;;;;1.00;1.00;;;;;20.82;54.02;100475.81;5040262;28;45952;-61
2023/07/27 06:25:18;;;;;;;;;1.50;1.50;;;;;20.85;54.00;100456.06;5040301;28;45360;-61
2023/07/27 06:27:43;;;;;;;;;2.00;0.00;;;;;20.84;53.72;100460.56;5040467;28;45258;-61
2023/07/27 06:30:09;;;;;;;;;1.00;1.00;;;;;20.85;54.28;100470.25;5040374;28;45332;-61
2023/07/27 06:32:34;;;;;;;;;0.00;0.00;;;;;20.88;54.18;100474.56;5040262;28;47033;-61
2023/07/27 06:35:00;;;;;;;;;1.00;1.00;;;;;20.87;54.10;100479.06;5039904;28;45325;-61
2023/07/27 06:37:26;;;;;;;;;2.25;1.00;;;;;20.85;54.26;100474.75;5039049;28;45328;-61
2023/07/27 06:39:51;;;;;;;;;1.00;1.00;;;;;20.86;54.41;100465.81;5040043;28;45226;-61
2023/07/27 06:42:16;;;;;;;;;3.00;1.00;;;;;20.85;54.36;100467.59;5039998;28;48912;-61
2023/07/27 06:44:42;;;;;;;;;1.00;1.00;;;;;20.81;54.13;100462.56;5039791;28;55056;-61
2023/07/27 06:47:07;;;;;;;;;2.00;2.00;;;;;20.90;54.50;100483.34;5040313;28;45221;-61
2023/07/27 06:49:32;;;;;;;;;1.00;1.00;;;;;20.92;54.36;100498.31;5040097;28;45255;-61
2023/07/27 06:51:58;;;;;;;;;0.25;0.25;;;;;20.92;54.70;100502.81;5039980;28;45285;-61
2023/07/27 06:54:23;;;;;;;;;1.50;0.00;;;;;20.90;54.53;100508.22;5040016;28;51169;-61
2023/07/27 06:56:48;;;;;;;;;1.00;1.00;;;;;20.86;54.82;100504.03;5038711;28;45183;-62
2023/07/27 06:59:14;;;;;;;;;0.25;0.25;;;;;20.86;54.68;100492.50;5022720;28;56186;-61
2023/07/27 07:01:39;;;;;;;;;1.00;1.00;;;;;20.85;55.13;100496.13;5039798;28;45234;-61
2023/07/27 07:04:05;;;;;;;;;1.75;1.00;;;;;20.84;54.88;100487.28;5039322;28;55924;-61
2023/07/27 07:06:30;;;;;;;;;1.00;1.00;;;;;20.83;54.94;100498.00;5040231;28;45168;-61
2023/07/27 07:08:57;;;;;;;;;0.00;0.00;;;;;20.83;54.98;100490.88;5040013;28;45460;-61
2023/07/27 07:11:22;;;;;;;;;2.00;0.75;;;;;20.85;54.79;100499.63;5039459;28;46475;-61
2023/07/27 07:13:48;;;;;;;;;1.00;1.00;;;;;20.83;54.46;100493.56;5021722;28;45423;-61
2023/07/27 07:16:13;;;;;;;;;0.50;0.50;;;;;20.82;54.46;100494.50;5039707;28;45303;-61
2023/07/27 07:18:39;;;;;;;;;0.00;0.00;;;;;20.81;54.56;100484.78;5039518;28;45365;-61
2023/07/27 07:21:04;;;;;;;;;1.00;1.00;;;;;20.83;54.05;100503.34;5039609;28;46030;-61
2023/07/27 07:23:30;;;;;;;;;0.00;0.00;;;;;20.82;54.01;100485.59;5039594;28;45383;-61
2023/07/27 07:25:55;;;;;;;;;0.00;0.00;;;;;20.85;53.62;100485.44;5039738;28;45341;-61
2023/07/27 07:28:20;;;;;;;;;1.00;0.00;;;;;20.87;53.20;100499.56;5039414;28;52452;-61
2023/07/27 07:30:45;;;;;;;;;0.00;0.00;;;;;20.89;53.54;100497.66;5039491;28;47053;-61
2023/07/27 07:33:11;;;;;;;;;1.00;1.00;;;;;20.87;53.81;100510.25;5039596;28;45333;-61
2023/07/27 07:35:38;;;;;;;;;0.00;0.00;;;;;20.87;53.61;100499.56;5039767;28;45294;-62
2023/07/27 07:38:05;;;;;;;;;1.25;0.25;;;;;20.87;53.17;100505.75;5039728;28;45309;-61
2023/07/27 07:40:30;;;;;;;;;1.00;1.00;;;;;20.89;53.43;100489.63;5039180;28;45494;-61
2023/07/27 07:42:56;;;;;;;;;1.00;0.50;;;;;20.91;52.88;100495.75;5039329;28;45250;-61
2023/07/27 07:45:21;;;;;;;;;1.25;1.00;;;;;20.91;53.49;100485.06;5039518;28;45500;-61
2023/07/27 07:47:46;;;;;;;;;0.00;0.00;;;;;20.96;52.70;100488.31;5039102;28;53120;-61
2023/07/27 07:50:12;;;;;;;;;0.00;0.00;;;;;20.96;53.15;100490.97;5039107;28;47374;-61
2023/07/27 07:52:37;;;;;;;;;0.25;0.25;;;;;21.01;53.12;100496.03;5039514;28;45270;-61
2023/07/27 07:55:02;;;;;;;;;3.50;1.25;;;;;21.03;53.18;100504.81;5039044;28;45269;-61
2023/07/27 07:57:28;;;;;;;;;1.00;0.25;;;;;21.06;53.06;100508.16;5039506;28;45335;-61
2023/07/27 07:59:53;;;;;;;;;1.00;1.00;;;;;21.09;52.62;100501.75;5038745;28;54930;-61
2023/07/27 08:02:18;;;;;;;;;1.00;1.00;;;;;21.08;52.36;100492.00;5039221;28;45504;-61
2023/07/27 08:04:44;;;;;;;;;2.50;2.00;;;;;21.11;52.54;100500.69;5039020;28;45784;-61
2023/07/27 08:07:09;;;;;;;;;1.00;1.00;;;;;21.13;52.25;100491.75;5039863;28;45482;-61
2023/07/27 08:09:34;;;;;;;;;2.50;1.75;;;;;21.15;52.91;100497.84;5042178;28;54184;-61
2023/07/27 08:11:59;;;;;;;;;3.00;2.00;;;;;21.17;52.67;100502.16;5042353;28;46812;-61
2023/07/27 08:14:25;;;;;;;;;2.75;2.00;;;;;21.17;52.09;100495.94;5042618;28;45452;-62
2023/07/27 08:16:50;;;;;;;;;2.00;2.00;;;;;21.22;52.03;100485.81;5042498;28;45392;-61
2023/07/27 08:19:15;;;;;;;;;3.25;2.00;;;;;21.23;52.28;100499.09;5024190;28;46993;-61
2023/07/27 08:21:41;;;;;;;;;1.25;1.25;;;;;21.29;52.00;100502.34;5042316;28;47035;-61
2023/07/27 08:24:06;;;;;;;;;2.00;2.00;;;;;21.35;52.27;100488.59;5041955;28;54812;-61
2023/07/27 08:26:32;;;;;;;;;1.00;0.00;;;;;21.40;51.49;100481.97;5042280;28;45520;-61
2023/07/27 08:28:57;;;;;;;;;2.00;0.50;;;;;21.38;51.64;100483.03;5042117;28;46111;-62
2023/07/27 08:31:22;;;;;;;;;0.00;0.00;;;;;21.45;52.03;100497.72;5042406;28;45260;-62
2023/07/27 08:33:48;;;;;;;;;1.75;1.00;;;;;21.48;52.02;100499.34;5042137;28;45438;-62
2023/07/27 08:36:13;;;;;;;;;1.50;1.50;;;;;21.54;51.20;100480.25;5041888;28;49748;-62
2023/07/27 08:38:38;;;;;;;;;0.75;0.75;;;;;21.57;51.97;100490.75;5041909;28;46064;-62
2023/07/27 08:41:04;;;;;;;;;2.50;1.75;;;;;21.63;51.68;100473.47;5041961;28;45222;-62
2023/07/27 08:43:29;;;;;;;;;3.25;3.00;;;;;21.67;51.77;100456.25;5042257;28;45289;-62
2023/07/27 08:45:55;;;;;;;;;1.00;1.00;;;;;21.73;51.82;100453.19;5041882;28;45326;-61
2023/07/27 08:48:23;;;;;;;;;1.00;1.00;;;;;21.78;51.46;100474.28;5041900;28;45250;-62
2023/07/27 08:50:49;;;;;;;;;1.25;1.25;;;;;21.80;51.46;100488.41;5041796;28;45263;-64
2023/07/27 08:53:15;;;;;;;;;3.25;2.00;;;;;21.84;51.33;100477.41;5041987;28;45301;-62
2023/07/27 08:55:41;;;;;;;;;2.00;2.00;;;;;21.86;51.39;100463.94;5041599;28;45479;-62
2023/07/27 08:58:08;;;;;;;;;0.00;0.00;;;;;21.91;51.27;100469.84;5041788;28;45253;-61
2023/07/27 09:00:34;;;;;;;;;1.00;1.00;;;;;21.96;50.87;100474.88;5028742;28;45226;-62
2023/07/27 09:02:59;;;;;;;;;1.75;1.75;;;;;21.94;50.90;100466.97;5041781;28;45264;-62
2023/07/27 09:05:41;;;;;;;;;2.00;2.00;;;;;22.00;51.31;100466.56;5041750;28;45506;-62
2023/07/27 09:08:12;;;;;;;;;0.50;0.25;;;;;22.05;50.93;100471.63;5041601;28;46148;-62
2023/07/27 09:10:38;;;;;;;;;1.75;1.75;;;;;22.11;51.10;100468.50;5041583;28;45387;-62
2023/07/27 09:13:04;;;;;;;;;1.25;1.00;;;;;22.17;51.20;100460.06;5041560;28;45333;-62
2023/07/27 09:15:30;;;;;;;;;0.00;0.00;;;;;22.21;50.99;100466.06;5041539;28;45480;-61
2023/07/27 09:17:58;;;;;;;;;0.25;0.25;;;;;22.25;50.45;100494.38;5041316;28;45405;-62
2023/07/27 09:20:24;;;;;;;;;1.00;1.00;;;;;22.33;50.76;100483.97;5040879;28;45320;-62
2023/07/27 09:22:50;;;;;;;;;1.25;1.25;;;;;22.33;50.76;100481.31;5041355;28;45481;-62
2023/07/27 09:25:21;;;;;;;;;0.75;0.75;;;;;22.37;50.58;100498.91;5041228;28;45456;-62
2023/07/27 09:27:46;;;;;;;;;0.00;0.00;;;;;22.42;50.51;100484.38;5040137;28;47322;-62
2023/07/27 09:30:12;;;;;;;;;1.00;1.00;;;;;22.46;50.13;100467.97;5041276;28;45226;-62
2023/07/27 09:32:38;;;;;;;;;1.00;0.00;;;;;22.51;50.24;100479.22;5037444;28;45246;-62
2023/07/27 09:35:04;;;;;;;;;1.00;1.00;;;;;22.53;50.30;100492.53;5030386;28;45218;-62
2023/07/27 09:37:29;;;;;;;;;0.00;0.00;;;;;22.56;50.38;100497.66;5021153;28;47186;-62
2023/07/27 09:40:12;;;;;;;;;1.00;1.00;;;;;22.60;50.25;100485.75;5021374;28;45325;-62
2023/07/27 09:42:39;;;;;;;;;0.00;0.00;;;;;22.66;50.13;100496.03;5038650;28;45295;-62
2023/07/27 09:45:05;;;;;;;;;1.00;1.00;;;;;22.67;50.08;100484.38;5028228;28;45488;-62
2023/07/27 09:47:31;;;;;;;;;2.00;2.00;;;;;22.67;50.29;100479.03;5020879;28;45398;-62
2023/07/27 09:50:00;;;;;;;;;1.00;0.50;;;;;22.72;50.15;100476.88;5021000;28;45231;-62
2023/07/27 09:52:26;;;;;;;;;0.50;0.50;;;;;22.79;50.16;100489.84;5021475;28;45434;-62
2023/07/27 09:54:54;;;;;;;;;0.00;0.00;;;;;22.81;50.11;100467.34;5021044;28;45282;-62
2023/07/27 09:57:20;;;;;;;;;1.00;1.00;;;;;22.85;49.61;100476.88;5020867;28;46638;-62
2023/07/27 09:59:46;;;;;;;;;1.00;1.00;;;;;22.86;49.63;100481.28;5034315;28;45249;-62
2023/07/27 10:02:13;;;;;;;;;1.50;1.00;;;;;22.88;49.37;100473.16;5041078;28;45361;-62
2023/07/27 10:04:38;;;;;;;;;1.00;1.00;;;;;22.90;49.66;100460.47;5040663;28;45388;-62
2023/07/27 10:07:05;;;;;;;;;0.00;0.00;;;;;22.97;49.61;100464.44;5022838;28;47440;-62
2023/07/27 10:09:30;;;;;;;;;1.00;1.00;;;;;23.01;49.50;100465.09;5040659;28;45352;-62
2023/07/27 10:11:57;;;;;;;;;1.00;1.00;;;;;23.04;49.40;100472.91;5040843;28;45272;-62
2023/07/27 10:14:27;;;;;;;;;2.00;0.25;;;;;23.05;49.53;100478.13;5040819;28;45216;-62
2023/07/27 10:17:07;;;;;;;;;1.75;1.75;;;;;23.09;49.20;100467.22;5040431;28;46076;-62
2023/07/27 10:19:41;;;;;;;;;3.50;3.00;;;;;23.18;49.23;100483.53;5040204;28;45338;-62
2023/07/27 10:22:10;;;;;;;;;2.00;2.00;;;;;23.20;49.03;100461.97;5040456;28;45318;-62
2023/07/27 10:24:56;;;;;;;;;2.00;2.00;;;;;23.24;48.65;100468.81;5040344;28;45226;-62
2023/07/27 10:27:22;;;;;;;;;1.75;1.50;;;;;23.23;48.71;100491.22;5040459;28;46230;-61
2023/07/27 10:29:52;;;;;;;;;5.00;2.00;;;;;23.24;48.71;100484.06;5040024;28;45385;-62
2023/07/27 10:32:17;;;;;;;;;6.00;2.75;;;;;23.23;48.81;100490.38;5022513;28;45233;-62
2023/07/27 10:34:43;;;;;;;;;3.00;1.00;;;;;23.28;48.89;100472.16;5040255;28;45350;-62
2023/07/27 10:37:10;;;;;;;;;1.00;1.00;;;;;23.24;48.45;100471.50;5032171;28;46856;-62
2023/07/27 10:39:50;;;;;;;;;2.00;2.00;;;;;23.30;48.51;100470.22;5020431;28;45164;-62
2023/07/27 10:42:18;;;;;;;;;2.00;2.00;;;;;23.31;48.50;100494.22;5020216;28;45443;-62
2023/07/27 10:44:56;;;;;;;;;2.75;2.75;;;;;23.31;48.30;100483.50;5020383;28;45299;-62
2023/07/27 10:47:27;;;;;;;;;3.00;2.00;;;;;23.27;48.41;100470.44;5020063;28;46271;-62
2023/07/27 10:49:57;;;;;;;;;3.75;2.00;;;;;23.29;48.37;100485.44;5019932;28;45243;-62
2023/07/27 10:52:30;;;;;;;;;1.00;1.00;;;;;23.25;48.45;100489.31;5020001;28;45357;-62
2023/07/27 10:54:58;;;;;;;;;5.00;3.00;;;;;23.20;48.27;100467.34;5019736;28;45535;-62
2023/07/27 10:57:25;;;;;;;;;1.00;1.00;;;;;23.22;48.32;100473.47;5002092;28;47231;-62
2023/07/27 10:59:51;;;;;;;;;2.25;1.25;;;;;23.23;48.24;100469.78;5034162;28;45321;-62
2023/07/27 11:02:17;;;;;;;;;3.00;3.00;;;;;23.23;48.41;100475.16;5026444;28;45546;-62
2023/07/27 11:04:44;;;;;;;;;1.00;1.00;;;;;23.23;48.02;100483.19;5039614;28;45505;-62
2023/07/27 11:07:10;;;;;;;;;1.00;1.00;;;;;23.23;47.83;100475.16;5039875;28;46380;-62
2023/07/27 11:09:36;;;;;;;;;1.75;1.75;;;;;23.24;48.02;100471.50;5039737;28;45224;-62
2023/07/27 11:12:02;;;;;;;;;2.25;2.00;;;;;23.23;48.05;100488.56;5039921;28;45563;-62
2023/07/27 11:14:27;;;;;;;;;2.75;2.25;;;;;23.19;48.06;100463.81;5039727;28;45254;-62
2023/07/27 11:16:53;;;;;;;;;3.75;2.50;;;;;23.23;48.29;100479.66;5039848;28;45881;-62
2023/07/27 11:19:19;;;;;;;;;4.50;3.00;;;;;23.23;48.33;100475.16;5039516;28;45459;-62
2023/07/27 11:21:44;;;;;;;;;2.50;2.50;;;;;23.26;47.89;100476.75;5039719;28;45339;-62